Time;durP1;ratioP1;P1;durP2;ratioP2;P2;SDS_P1;SDS_P2;PMS_P1;PMS_P2;Temp;Humidity;BMP_temperature;BMP_pressure;BME280_temperature;BME280_humidity;BME280_pressure;Samples;Min_cycle;Max_cycle;Signal;HPM_P1;HPM_P2
2023/01/05 00:01:39;;;;;;;0.35;0.35;;;8.90;99.90;;;;;;5046458;28;20713;-76
2023/01/05 00:04:05;;;;;;;0.13;0.13;;;8.90;99.90;;;;;;5046317;28;20028;-77
2023/01/05 00:06:31;;;;;;;4.18;1.55;;;8.90;99.90;;;;;;5040809;28;20496;-76
2023/01/05 00:08:59;;;;;;;0.30;0.30;;;8.90;99.90;;;;;;5041994;28;20052;-76
2023/01/05 00:22:52;;;;;;;0.40;0.40;;;8.90;99.90;;;;;;5042726;28;20482;-77
2023/01/05 00:25:20;;;;;;;0.40;0.40;;;8.90;99.90;;;;;;5042631;28;20022;-75
2023/01/05 00:27:49;;;;;;;0.65;0.65;;;8.90;99.90;;;;;;5043041;28;20025;-76
2023/01/05 00:30:20;;;;;;;0.85;0.82;;;8.80;99.90;;;;;;5043043;28;20029;-76
2023/01/05 00:32:46;;;;;;;0.20;0.20;;;8.70;99.90;;;;;;5043001;28;20519;-77
2023/01/05 00:35:13;;;;;;;0.20;0.20;;;8.80;99.90;;;;;;5043002;28;20021;-76
2023/01/05 00:37:39;;;;;;;0.43;0.43;;;8.80;99.90;;;;;;5041058;28;20146;-75
2023/01/05 00:40:07;;;;;;;0.90;0.90;;;8.90;99.90;;;;;;5042837;28;20033;-77
2023/01/05 00:42:33;;;;;;;0.52;0.52;;;8.90;99.90;;;;;;5042612;28;20021;-76
2023/01/05 00:44:59;;;;;;;0.20;0.20;;;8.90;99.90;;;;;;5042534;28;20456;-75
2023/01/05 00:47:25;;;;;;;0.93;0.75;;;8.90;99.90;;;;;;5042359;28;20045;-76
2023/01/05 00:49:50;;;;;;;0.20;0.20;;;8.90;99.90;;;;;;5040829;28;20068;-76
2023/01/05 00:52:16;;;;;;;0.28;0.28;;;8.90;99.90;;;;;;5042158;28;20060;-75
2023/01/05 00:54:42;;;;;;;0.32;0.32;;;8.90;99.90;;;;;;5036512;28;20021;-75
2023/01/05 00:57:10;;;;;;;0.55;0.55;;;8.90;99.90;;;;;;5042257;28;20570;-76
2023/01/05 00:59:36;;;;;;;0.10;0.10;;;8.90;99.90;;;;;;5041756;28;20017;-77
2023/01/05 01:02:02;;;;;;;0.65;0.20;;;8.80;99.90;;;;;;5042496;28;20793;-75
2023/01/05 01:04:30;;;;;;;0.13;0.13;;;8.80;99.90;;;;;;5042421;28;20696;-75
2023/01/05 01:06:55;;;;;;;0.17;0.17;;;8.80;99.90;;;;;;5037644;28;20488;-77
2023/01/05 01:09:21;;;;;;;0.10;0.10;;;8.90;99.90;;;;;;5042565;28;20067;-77
2023/01/05 01:11:47;;;;;;;0.10;0.10;;;8.80;99.90;;;;;;5041729;28;20476;-77
2023/01/05 01:14:13;;;;;;;0.20;0.20;;;8.70;99.90;;;;;;5042437;28;20033;-74
2023/01/05 01:16:42;;;;;;;0.20;0.20;;;8.90;99.90;;;;;;5041398;28;20494;-75
2023/01/05 01:19:15;;;;;;;0.10;0.10;;;8.80;99.90;;;;;;5039458;28;20025;-76
2023/01/05 01:21:41;;;;;;;0.20;0.20;;;8.80;99.90;;;;;;5039175;28;20514;-76
2023/01/05 01:24:08;;;;;;;0.32;0.32;;;8.80;99.90;;;;;;5046455;28;20025;-75
2023/01/05 01:26:33;;;;;;;0.10;0.10;;;8.80;99.90;;;;;;5041592;28;20021;-75
2023/01/05 01:28:59;;;;;;;0.73;0.73;;;8.70;99.90;;;;;;5041640;28;20058;-75
2023/01/05 01:31:25;;;;;;;0.30;0.30;;;8.60;99.90;;;;;;5041509;28;20734;-76
2023/01/05 01:33:50;;;;;;;0.20;0.20;;;8.60;99.90;;;;;;5041646;28;20063;-75
2023/01/05 01:36:16;;;;;;;0.35;0.35;;;8.80;99.90;;;;;;5040833;28;20104;-76
2023/01/05 01:38:42;;;;;;;0.63;0.63;;;8.80;99.90;;;;;;5033179;28;20032;-76
2023/01/05 01:41:10;;;;;;;0.77;0.75;;;8.80;99.90;;;;;;5041522;28;20529;-75
2023/01/05 01:43:46;;;;;;;0.50;0.50;;;8.60;99.90;;;;;;5041262;28;20530;-76
2023/01/05 01:46:14;;;;;;;0.10;0.10;;;8.70;99.90;;;;;;5041708;28;20021;-75
2023/01/05 01:48:45;;;;;;;0.65;0.38;;;8.80;99.90;;;;;;5041140;28;20575;-76
2023/01/05 01:51:16;;;;;;;0.17;0.17;;;8.60;99.90;;;;;;5041494;28;20033;-75
2023/01/05 01:53:45;;;;;;;0.20;0.20;;;8.70;99.90;;;;;;5041639;28;20033;-75
2023/01/05 01:56:17;;;;;;;0.95;0.80;;;8.80;99.90;;;;;;5041401;28;20104;-76
2023/01/05 01:58:43;;;;;;;1.27;0.65;;;8.80;99.90;;;;;;5041111;28;20071;-76
2023/01/05 02:01:09;;;;;;;0.50;0.50;;;8.70;99.90;;;;;;5036881;28;20831;-77
2023/01/05 02:03:36;;;;;;;0.38;0.38;;;8.80;99.90;;;;;;5038284;28;20044;-76
2023/01/05 02:06:02;;;;;;;0.10;0.10;;;8.70;99.90;;;;;;5038520;28;20036;-76
2023/01/05 02:08:31;;;;;;;0.20;0.20;;;8.80;99.90;;;;;;5036068;28;20060;-78
2023/01/05 02:11:19;;;;;;;0.20;0.20;;;8.70;99.90;;;;;;5040405;28;20441;-76
2023/01/05 02:14:11;;;;;;;0.20;0.20;;;8.70;99.90;;;;;;5041533;28;20025;-75
2023/01/05 02:16:47;;;;;;;1.27;0.60;;;8.70;99.90;;;;;;5041705;28;20034;-78
2023/01/05 02:19:38;;;;;;;0.55;0.55;;;8.80;99.90;;;;;;5037100;28;20051;-77
2023/01/05 02:22:28;;;;;;;0.90;0.90;;;8.70;99.90;;;;;;5041254;28;20029;-75
2023/01/05 02:25:31;;;;;;;0.20;0.20;;;8.80;99.90;;;;;;5045288;28;20059;-76
2023/01/05 02:28:21;;;;;;;0.20;0.20;;;8.70;99.90;;;;;;5040970;28;20025;-76
2023/01/05 02:30:59;;;;;;;0.45;0.30;;;8.80;99.90;;;;;;5044243;28;20037;-75
2023/01/05 02:33:31;;;;;;;0.45;0.45;;;8.80;99.90;;;;;;5049984;28;20029;-76
2023/01/05 02:36:16;;;;;;;0.10;0.10;;;8.80;99.90;;;;;;5043440;28;20150;-76
2023/01/05 02:39:11;;;;;;;2.05;0.95;;;8.90;99.90;;;;;;5045588;28;20029;-76
2023/01/05 02:42:23;;;;;;;0.57;0.57;;;8.90;99.90;;;;;;5044313;28;20033;-75
2023/01/05 02:44:48;;;;;;;0.20;0.20;;;8.80;99.90;;;;;;5019710;28;20153;-76
2023/01/05 02:47:26;;;;;;;0.20;0.20;;;8.80;99.90;;;;;;5021880;28;20041;-77
2023/01/05 02:50:15;;;;;;;0.32;0.32;;;8.80;99.90;;;;;;5033821;28;20068;-76
2023/01/05 02:52:59;;;;;;;0.38;0.38;;;8.80;99.90;;;;;;5020397;28;20680;-76
2023/01/05 02:55:49;;;;;;;1.75;0.90;;;8.80;99.90;;;;;;5044351;28;20119;-75
2023/01/05 02:58:33;;;;;;;0.10;0.10;;;8.80;99.90;;;;;;5041930;28;20071;-76
2023/01/05 03:01:31;;;;;;;0.20;0.20;;;8.90;99.90;;;;;;5044160;28;20571;-76
2023/01/05 03:04:04;;;;;;;2.92;0.30;;;8.80;99.90;;;;;;5043038;28;20079;-76
2023/01/05 03:06:35;;;;;;;0.63;0.63;;;8.80;99.90;;;;;;5038829;28;20088;-76
2023/01/05 03:09:03;;;;;;;0.47;0.47;;;8.80;99.90;;;;;;5044259;28;20423;-77
2023/01/05 03:14:31;;;;;;;0.40;0.40;;;8.80;99.90;;;;;;5042283;28;20063;-76
2023/01/05 03:17:00;;;;;;;0.52;0.52;;;8.80;99.90;;;;;;5043584;28;20053;-77
2023/01/05 03:19:38;;;;;;;0.50;0.50;;;8.80;99.90;;;;;;5045369;28;20029;-77
2023/01/05 03:37:17;;;;;;;0.75;0.47;;;8.80;99.90;;;;;;5045353;28;20139;-76
2023/01/05 03:39:46;;;;;;;0.82;0.60;;;8.80;99.90;;;;;;5045773;28;20029;-75
2023/01/05 03:42:13;;;;;;;0.20;0.20;;;8.80;99.90;;;;;;5044204;28;20484;-76
2023/01/05 03:44:39;;;;;;;;;;;8.80;99.90;;;;;;5043665;28;20203;-76
2023/01/05 03:47:05;;;;;;;0.30;0.30;;;8.80;99.90;;;;;;5043790;28;19916;-77
2023/01/05 03:49:31;;;;;;;0.10;0.10;;;8.80;99.90;;;;;;5043894;28;20037;-76
2023/01/05 03:51:57;;;;;;;0.20;0.20;;;8.80;99.90;;;;;;5042879;28;20029;-76
2023/01/05 03:54:22;;;;;;;0.52;0.52;;;8.70;99.90;;;;;;5043706;28;20154;-77
2023/01/05 03:56:48;;;;;;;2.45;1.70;;;8.70;99.90;;;;;;5043187;28;20039;-76
2023/01/05 03:59:14;;;;;;;0.25;0.25;;;8.80;99.90;;;;;;5042956;28;20028;-76
2023/01/05 04:01:40;;;;;;;0.10;0.10;;;8.90;99.90;;;;;;5043285;28;20071;-79
2023/01/05 04:04:06;;;;;;;0.30;0.30;;;8.80;99.90;;;;;;5043363;28;20025;-77
2023/01/05 04:06:32;;;;;;;0.28;0.28;;;8.80;99.90;;;;;;5042300;28;20460;-75
2023/01/05 04:08:57;;;;;;;0.20;0.20;;;8.90;99.90;;;;;;5043278;28;20549;-77
2023/01/05 04:11:24;;;;;;;0.20;0.20;;;8.90;99.90;;;;;;5029361;28;20560;-76
2023/01/05 04:13:50;;;;;;;0.10;0.10;;;8.90;99.90;;;;;;5040565;28;20052;-76
2023/01/05 04:16:16;;;;;;;0.13;0.13;;;8.90;99.90;;;;;;5043221;28;20025;-77
2023/01/05 04:18:42;;;;;;;0.10;0.10;;;8.90;99.90;;;;;;5045073;28;20025;-75
2023/01/05 04:21:08;;;;;;;0.30;0.30;;;8.90;99.90;;;;;;5046699;28;20032;-76
2023/01/05 04:23:34;;;;;;;0.83;0.73;;;8.90;99.90;;;;;;5043418;28;20630;-76
2023/01/05 04:26:00;;;;;;;0.10;0.10;;;8.90;99.90;;;;;;5043464;28;20025;-76
2023/01/05 04:28:26;;;;;;;0.40;0.40;;;8.90;99.90;;;;;;5043267;28;20464;-77
2023/01/05 04:30:54;;;;;;;0.10;0.10;;;8.90;99.90;;;;;;5043087;28;20032;-76
2023/01/05 04:33:20;;;;;;;0.43;0.43;;;8.90;99.90;;;;;;5043378;28;20056;-75
2023/01/05 04:35:46;;;;;;;0.30;0.30;;;8.80;99.90;;;;;;5034892;28;20025;-75
2023/01/05 04:38:12;;;;;;;1.45;0.90;;;8.90;99.90;;;;;;5037694;28;20630;-76
2023/01/05 04:40:38;;;;;;;0.10;0.10;;;8.90;99.90;;;;;;5041859;28;20032;-75
2023/01/05 04:43:04;;;;;;;3.00;0.85;;;8.90;99.90;;;;;;5043200;28;20068;-77
2023/01/05 04:45:30;;;;;;;0.20;0.20;;;8.90;99.90;;;;;;5043706;28;20051;-75
2023/01/05 04:47:56;;;;;;;0.32;0.32;;;8.90;99.90;;;;;;5039028;28;20099;-76
2023/01/05 04:50:22;;;;;;;0.10;0.10;;;8.90;99.90;;;;;;5042644;28;20051;-75
2023/01/05 04:52:48;;;;;;;0.30;0.30;;;8.90;99.90;;;;;;5043247;28;20071;-76
2023/01/05 04:55:14;;;;;;;0.28;0.28;;;8.80;99.90;;;;;;5043576;28;20057;-76
2023/01/05 04:57:40;;;;;;;0.75;0.75;;;8.90;99.90;;;;;;5043225;28;20033;-77
2023/01/05 05:00:06;;;;;;;0.40;0.40;;;8.90;99.90;;;;;;5043207;28;20521;-76
2023/01/05 05:02:33;;;;;;;0.10;0.10;;;8.90;99.90;;;;;;5042664;28;20025;-76
2023/01/05 05:04:58;;;;;;;0.30;0.30;;;8.90;99.90;;;;;;5039195;28;20025;-77
2023/01/05 05:07:24;;;;;;;0.10;0.10;;;8.90;99.90;;;;;;5041557;28;20056;-75
2023/01/05 05:09:50;;;;;;;0.20;0.20;;;8.90;99.90;;;;;;5039206;28;20037;-76
2023/01/05 05:12:19;;;;;;;0.10;0.10;;;8.90;99.90;;;;;;5042297;28;20037;-78
2023/01/05 05:14:46;;;;;;;0.20;0.20;;;8.90;99.90;;;;;;5038409;28;20029;-77
2023/01/05 05:17:12;;;;;;;0.47;0.47;;;8.90;99.90;;;;;;5042297;28;20021;-75
2023/01/05 05:19:37;;;;;;;0.10;0.10;;;8.90;99.90;;;;;;5042021;28;20781;-76
2023/01/05 05:22:03;;;;;;;0.32;0.32;;;8.90;99.90;;;;;;5042150;28;20708;-76
2023/01/05 05:24:29;;;;;;;0.10;0.10;;;8.90;99.90;;;;;;5042826;28;20029;-76
2023/01/05 05:26:56;;;;;;;0.32;0.32;;;8.90;99.90;;;;;;5042296;28;20021;-77
2023/01/05 05:29:22;;;;;;;0.55;0.55;;;8.90;99.90;;;;;;5042065;28;20099;-76
2023/01/05 05:31:48;;;;;;;0.50;0.50;;;8.80;99.90;;;;;;5038334;28;20415;-75
2023/01/05 05:34:14;;;;;;;0.20;0.20;;;8.80;99.90;;;;;;5042057;28;20037;-76
2023/01/05 05:36:40;;;;;;;0.10;0.10;;;8.80;99.90;;;;;;5039558;28;20442;-77
2023/01/05 05:39:06;;;;;;;0.38;0.30;;;8.90;99.90;;;;;;5040513;28;20102;-75
2023/01/05 05:41:32;;;;;;;0.32;0.32;;;8.90;99.90;;;;;;5041485;28;20092;-74
2023/01/05 05:43:59;;;;;;;0.40;0.40;;;8.90;99.90;;;;;;5040977;28;20029;-77
2023/01/05 05:46:27;;;;;;;0.20;0.20;;;8.90;99.90;;;;;;5042487;28;20036;-77
2023/01/05 05:48:54;;;;;;;0.50;0.50;;;8.90;99.90;;;;;;5042365;28;20106;-75
2023/01/05 05:51:20;;;;;;;0.88;0.88;;;8.90;99.90;;;;;;5036135;28;20032;-76
2023/01/05 05:53:45;;;;;;;0.70;0.70;;;8.90;99.90;;;;;;5046545;28;20033;-76
2023/01/05 05:56:11;;;;;;;0.30;0.30;;;8.90;99.90;;;;;;5041516;28;20457;-75
2023/01/05 05:58:37;;;;;;;0.30;0.30;;;9.00;99.90;;;;;;5044462;28;20545;-78
2023/01/05 06:01:02;;;;;;;0.30;0.30;;;8.90;99.90;;;;;;5039528;28;20083;-76
2023/01/05 06:03:28;;;;;;;1.83;0.57;;;8.90;99.90;;;;;;5046911;28;20036;-76
2023/01/05 06:05:54;;;;;;;0.10;0.10;;;8.80;99.90;;;;;;5045774;28;20104;-76
2023/01/05 06:08:20;;;;;;;0.40;0.40;;;8.90;99.90;;;;;;5046277;28;20049;-77
2023/01/05 06:10:48;;;;;;;0.80;0.77;;;8.90;99.90;;;;;;5041480;28;20040;-79
2023/01/05 06:13:14;;;;;;;4.22;1.35;;;8.80;99.90;;;;;;5043787;28;20040;-76
2023/01/05 06:15:40;;;;;;;0.30;0.30;;;8.80;99.90;;;;;;5040048;28;20919;-78
2023/01/05 06:18:06;;;;;;;4.45;0.65;;;8.90;99.90;;;;;;5036626;28;20431;-77
2023/01/05 06:20:32;;;;;;;0.13;0.13;;;8.80;99.90;;;;;;5046405;28;20032;-74
2023/01/05 06:22:58;;;;;;;0.20;0.20;;;8.70;99.90;;;;;;5045908;28;20025;-75
2023/01/05 06:25:23;;;;;;;0.35;0.35;;;8.60;99.90;;;;;;5040348;28;20108;-78
2023/01/05 06:27:49;;;;;;;0.93;0.93;;;8.60;99.90;;;;;;5034324;28;20166;-76
2023/01/05 06:30:15;;;;;;;0.20;0.20;;;8.60;99.90;;;;;;5037947;28;20041;-78
2023/01/05 06:32:41;;;;;;;0.52;0.45;;;8.70;99.90;;;;;;5045247;28;20033;-75
2023/01/05 06:35:07;;;;;;;0.75;0.65;;;8.70;99.90;;;;;;5040929;28;20074;-76
2023/01/05 06:37:32;;;;;;;0.40;0.40;;;8.90;99.90;;;;;;5045502;28;20040;-75
2023/01/05 06:39:58;;;;;;;0.50;0.50;;;8.80;99.90;;;;;;5041909;28;20056;-75
2023/01/05 06:42:24;;;;;;;0.30;0.30;;;8.90;99.90;;;;;;5053399;28;20027;-77
2023/01/05 06:44:50;;;;;;;0.75;0.75;;;8.90;99.90;;;;;;5054894;28;20029;-76
2023/01/05 06:47:16;;;;;;;0.70;0.43;;;8.90;99.90;;;;;;5045941;28;20032;-79
2023/01/05 06:49:42;;;;;;;0.93;0.93;;;8.90;99.90;;;;;;5041154;28;21259;-76
2023/01/05 06:52:08;;;;;;;1.02;1.02;;;8.90;99.90;;;;;;5045356;28;20060;-75
2023/01/05 06:54:33;;;;;;;0.10;0.10;;;8.90;99.90;;;;;;5059380;28;20029;-75
2023/01/05 06:56:59;;;;;;;0.15;0.15;;;8.80;99.90;;;;;;5044720;28;20024;-75
2023/01/05 06:59:25;;;;;;;0.32;0.32;;;8.90;99.90;;;;;;5045110;28;20025;-78
2023/01/05 07:01:50;;;;;;;1.27;1.17;;;8.90;99.90;;;;;;5045068;28;20029;-75
2023/01/05 07:04:16;;;;;;;0.47;0.47;;;8.90;99.90;;;;;;5045395;28;20029;-76
2023/01/05 07:06:42;;;;;;;1.92;1.73;;;8.70;99.90;;;;;;5040651;28;20025;-75
2023/01/05 07:09:08;;;;;;;1.20;1.05;;;8.70;99.90;;;;;;5040485;28;20041;-76
2023/01/05 07:11:33;;;;;;;1.20;1.10;;;8.70;99.90;;;;;;5042985;28;20052;-76
2023/01/05 07:13:59;;;;;;;0.30;0.30;;;8.80;99.90;;;;;;5044935;28;20017;-76
2023/01/05 07:16:25;;;;;;;0.25;0.25;;;8.80;99.90;;;;;;5045253;28;20850;-78
2023/01/05 07:18:50;;;;;;;0.93;0.93;;;8.90;99.90;;;;;;5041505;28;20033;-75
2023/01/05 07:21:16;;;;;;;0.43;0.43;;;8.90;99.90;;;;;;5051129;28;20025;-75
2023/01/05 07:23:42;;;;;;;0.28;0.28;;;8.90;99.90;;;;;;5053017;28;20495;-74
2023/01/05 07:26:08;;;;;;;0.20;0.20;;;8.90;99.90;;;;;;5042624;28;20147;-74
2023/01/05 07:28:36;;;;;;;0.30;0.30;;;8.90;99.90;;;;;;5043324;28;20021;-74
2023/01/05 07:31:02;;;;;;;0.50;0.50;;;8.90;99.90;;;;;;5043849;28;20491;-74
2023/01/05 07:33:27;;;;;;;0.10;0.10;;;8.80;99.90;;;;;;5043729;28;20040;-74
2023/01/05 07:35:53;;;;;;;1.55;1.30;;;8.80;99.90;;;;;;5043952;28;20056;-75
2023/01/05 07:38:19;;;;;;;0.68;0.68;;;8.70;99.90;;;;;;5040656;28;20075;-73
2023/01/05 07:40:45;;;;;;;0.82;0.82;;;8.70;99.90;;;;;;5044187;28;20415;-77
2023/01/05 07:43:11;;;;;;;0.50;0.50;;;8.80;99.90;;;;;;5044263;28;20100;-74
2023/01/05 07:45:36;;;;;;;0.60;0.60;;;8.90;99.90;;;;;;5037046;28;20029;-74
2023/01/05 07:48:02;;;;;;;6.93;3.53;;;8.90;99.90;;;;;;5044477;28;20051;-74
2023/01/05 07:50:28;;;;;;;5.22;2.03;;;8.90;99.90;;;;;;5039310;28;20126;-74
2023/01/05 07:52:54;;;;;;;1.23;1.13;;;8.90;99.90;;;;;;5044622;28;20483;-74
2023/01/05 07:55:20;;;;;;;1.88;1.45;;;8.90;99.90;;;;;;5044608;28;20247;-74
2023/01/05 07:57:46;;;;;;;1.08;0.93;;;8.90;99.90;;;;;;5044425;28;20535;-75
2023/01/05 08:00:13;;;;;;;0.63;0.63;;;8.90;99.90;;;;;;5044050;28;20021;-74
2023/01/05 08:02:40;;;;;;;0.90;0.73;;;9.00;99.90;;;;;;5043956;28;20021;-74
2023/01/05 08:05:06;;;;;;;0.30;0.30;;;9.00;99.90;;;;;;5044103;28;20059;-74
2023/01/05 08:07:33;;;;;;;0.47;0.47;;;9.00;99.90;;;;;;5041088;28;20088;-74
2023/01/05 08:15:29;;;;;;;0.30;0.30;;;9.10;99.90;;;;;;5036239;28;20529;-76
2023/01/05 08:17:55;;;;;;;0.25;0.25;;;9.20;99.90;;;;;;5043305;28;20021;-74
2023/01/05 08:20:20;;;;;;;0.10;0.10;;;9.30;99.90;;;;;;5043552;28;20031;-77
2023/01/05 08:22:50;;;;;;;0.17;0.17;;;9.30;99.90;;;;;;5042985;28;20090;-76
2023/01/05 08:25:16;;;;;;;0.65;0.30;;;9.30;99.90;;;;;;5038630;28;20017;-75
2023/01/05 08:27:42;;;;;;;0.20;0.20;;;9.30;99.90;;;;;;5043225;28;20075;-74
2023/01/05 08:30:08;;;;;;;1.55;1.45;;;9.30;99.90;;;;;;5043478;28;20396;-74
2023/01/05 08:32:34;;;;;;;1.38;1.00;;;9.40;99.90;;;;;;5043803;28;20102;-74
2023/01/05 08:34:59;;;;;;;0.20;0.20;;;9.40;99.90;;;;;;5042913;28;20033;-75
2023/01/05 08:37:25;;;;;;;0.50;0.50;;;9.40;99.90;;;;;;5040325;28;20797;-76
2023/01/05 08:39:51;;;;;;;1.45;0.47;;;9.40;99.90;;;;;;5042922;28;20532;-74
2023/01/05 08:42:16;;;;;;;0.40;0.40;;;9.40;99.90;;;;;;5042721;28;20415;-74
2023/01/05 08:44:42;;;;;;;1.17;0.45;;;9.40;99.90;;;;;;5042547;28;20028;-75
2023/01/05 08:47:08;;;;;;;0.22;0.22;;;9.40;99.90;;;;;;5042524;28;20035;-74
2023/01/05 08:49:34;;;;;;;1.08;0.65;;;9.50;99.90;;;;;;5042858;28;20412;-73
2023/01/05 08:51:59;;;;;;;0.95;0.50;;;9.50;99.90;;;;;;5042755;28;20400;-74
2023/01/05 08:54:25;;;;;;;0.65;0.65;;;9.40;99.90;;;;;;5042839;28;20547;-77
2023/01/05 08:56:51;;;;;;;2.00;1.45;;;9.40;99.90;;;;;;5041260;28;20056;-75
2023/01/05 08:59:17;;;;;;;0.65;0.65;;;9.40;99.90;;;;;;5042562;28;20388;-73
2023/01/05 09:01:43;;;;;;;0.70;0.70;;;9.60;99.90;;;;;;5043343;28;20025;-76
2023/01/05 09:04:09;;;;;;;0.80;0.63;;;10.00;99.90;;;;;;5042656;28;20503;-74
2023/01/05 09:06:35;;;;;;;0.73;0.73;;;10.10;99.90;;;;;;5041617;28;20079;-74
2023/01/05 09:09:00;;;;;;;0.20;0.20;;;10.10;99.90;;;;;;5042314;28;20574;-74
2023/01/05 09:11:26;;;;;;;0.70;0.68;;;10.00;99.90;;;;;;5041918;28;20573;-75
2023/01/05 09:13:54;;;;;;;1.75;1.02;;;10.10;99.90;;;;;;5042837;28;20033;-74
2023/01/05 09:16:23;;;;;;;0.82;0.82;;;10.10;99.90;;;;;;5042691;28;20027;-74
2023/01/05 09:18:49;;;;;;;0.20;0.20;;;10.10;99.90;;;;;;5042543;28;20029;-74
2023/01/05 09:21:15;;;;;;;0.33;0.33;;;10.10;99.90;;;;;;5042744;28;20561;-74
2023/01/05 09:23:41;;;;;;;0.20;0.20;;;10.10;99.90;;;;;;5043308;28;20428;-74
2023/01/05 09:26:09;;;;;;;1.98;1.00;;;10.10;99.90;;;;;;5042670;28;20140;-75
2023/01/05 09:28:35;;;;;;;2.75;0.40;;;10.10;99.90;;;;;;5042870;28;20045;-75
2023/01/05 09:31:10;;;;;;;0.47;0.40;;;10.00;99.90;;;;;;5042380;28;20129;-76
2023/01/05 09:33:36;;;;;;;0.40;0.40;;;10.00;99.90;;;;;;5042289;28;20086;-75
2023/01/05 09:36:02;;;;;;;0.40;0.40;;;9.90;99.90;;;;;;5042408;28;20155;-74
2023/01/05 09:38:29;;;;;;;0.63;0.43;;;9.90;99.90;;;;;;5038695;28;20929;-75
2023/01/05 09:40:59;;;;;;;0.57;0.43;;;10.10;99.90;;;;;;5042701;28;20029;-74
2023/01/05 09:43:33;;;;;;;1.02;0.30;;;10.10;99.90;;;;;;5042588;28;20032;-74
2023/01/05 09:46:00;;;;;;;0.45;0.45;;;10.20;99.90;;;;;;5042238;28;20083;-76
2023/01/05 09:48:26;;;;;;;;;;;10.20;99.90;;;;;;5040695;28;20037;-75
2023/01/05 09:50:52;;;;;;;0.55;0.52;;;10.10;99.90;;;;;;5041990;28;19923;-74
2023/01/05 09:53:26;;;;;;;1.23;1.13;;;10.10;99.90;;;;;;5042533;28;20033;-74
2023/01/05 09:55:53;;;;;;;0.60;0.60;;;10.10;99.90;;;;;;5042125;28;20029;-75
2023/01/05 09:58:26;;;;;;;0.30;0.30;;;9.90;99.90;;;;;;5041836;28;20095;-74
2023/01/05 10:01:09;;;;;;;0.35;0.35;;;10.00;99.90;;;;;;5042156;28;20059;-74
2023/01/05 10:03:39;;;;;;;0.38;0.20;;;10.00;99.90;;;;;;5040633;28;20025;-76
2023/01/05 10:06:11;;;;;;;0.95;0.50;;;10.10;99.90;;;;;;5041449;28;20503;-74
2023/01/05 10:08:45;;;;;;;0.30;0.30;;;10.10;99.90;;;;;;5041448;28;20052;-75
2023/01/05 10:14:20;;;;;;;0.80;0.80;;;10.40;99.90;;;;;;5041273;28;20159;-74
2023/01/05 10:16:46;;;;;;;0.38;0.38;;;10.70;99.90;;;;;;5041629;28;20754;-75
2023/01/05 10:19:19;;;;;;;0.25;0.25;;;10.60;99.90;;;;;;5042035;28;20017;-75
2023/01/05 10:22:19;;;;;;;0.47;0.43;;;10.40;99.90;;;;;;5043528;28;20036;-75
2023/01/05 10:25:11;;;;;;;0.60;0.60;;;10.40;99.90;;;;;;5039390;28;20105;-73
2023/01/05 10:27:53;;;;;;;0.70;0.70;;;10.30;99.90;;;;;;5036846;28;20475;-73
2023/01/05 10:30:24;;;;;;;0.50;0.50;;;10.20;99.90;;;;;;5040497;28;20049;-75
2023/01/05 10:33:05;;;;;;;0.60;0.60;;;10.20;99.90;;;;;;5041533;28;20029;-74
2023/01/05 10:35:53;;;;;;;1.10;0.90;;;10.30;99.90;;;;;;5041965;28;20045;-74
2023/01/05 10:38:27;;;;;;;0.45;0.45;;;10.30;99.90;;;;;;5040123;28;20131;-74
2023/01/05 10:41:02;;;;;;;0.25;0.25;;;10.40;99.90;;;;;;5041768;28;20488;-75
2023/01/05 10:43:49;;;;;;;0.10;0.10;;;10.40;99.90;;;;;;5041337;28;20060;-74
2023/01/05 10:46:17;;;;;;;0.30;0.30;;;10.40;99.90;;;;;;5043371;28;20048;-76
2023/01/05 10:48:43;;;;;;;0.43;0.43;;;10.40;99.90;;;;;;5044963;28;20029;-74
2023/01/05 10:51:09;;;;;;;0.70;0.70;;;10.40;99.90;;;;;;5042600;28;20060;-74
2023/01/05 10:53:38;;;;;;;0.10;0.10;;;10.30;99.90;;;;;;5044329;28;20372;-73
2023/01/05 10:56:11;;;;;;;0.30;0.30;;;10.40;99.90;;;;;;5044983;28;20034;-76
2023/01/05 10:58:38;;;;;;;0.10;0.10;;;10.50;99.90;;;;;;5044796;28;20031;-74
2023/01/05 11:01:29;;;;;;;0.10;0.10;;;10.70;99.90;;;;;;5044445;28;20130;-74
2023/01/05 11:04:04;;;;;;;1.00;0.47;;;10.80;99.90;;;;;;5044564;28;20032;-74
2023/01/05 11:06:32;;;;;;;5.32;0.63;;;10.60;99.90;;;;;;5043438;28;20036;-74
2023/01/05 11:09:16;;;;;;;0.43;0.43;;;10.60;99.90;;;;;;5042760;28;20472;-76
2023/01/05 11:11:51;;;;;;;0.20;0.20;;;10.50;99.90;;;;;;5044556;28;20176;-74
2023/01/05 11:14:16;;;;;;;4.85;0.73;;;10.50;99.90;;;;;;5044156;28;20030;-74
2023/01/05 11:16:54;;;;;;;0.00;0.00;;;10.40;99.90;;;;;;5043965;28;20040;-74
2023/01/05 11:19:36;;;;;;;0.77;0.77;;;10.50;99.90;;;;;;5044528;28;20036;-74
2023/01/05 11:22:02;;;;;;;1.00;0.82;;;10.40;99.90;;;;;;5038920;28;20017;-74
2023/01/05 11:24:32;;;;;;;0.35;0.35;;;10.40;99.90;;;;;;5044083;28;20082;-75
2023/01/05 11:27:27;;;;;;;0.13;0.13;;;10.60;99.90;;;;;;5043873;28;20086;-75
2023/01/05 11:30:24;;;;;;;0.45;0.45;;;10.80;99.90;;;;;;5043627;28;20061;-75
2023/01/05 11:32:50;;;;;;;0.20;0.20;;;10.90;99.90;;;;;;5034393;28;20037;-74
2023/01/05 11:35:32;;;;;;;0.10;0.10;;;10.90;99.90;;;;;;5044158;28;20492;-76
2023/01/05 11:37:59;;;;;;;0.10;0.10;;;11.10;99.90;;;;;;5039573;28;20017;-75
2023/01/05 11:40:28;;;;;;;;;;;11.00;99.90;;;;;;5039790;28;20108;-73
2023/01/05 11:42:54;;;;;;;1.65;0.40;;;11.20;99.90;;;;;;5044216;28;19912;-74
2023/01/05 11:45:31;;;;;;;0.32;0.20;;;11.30;99.90;;;;;;5043934;28;20035;-75
2023/01/05 11:48:05;;;;;;;0.60;0.60;;;11.10;99.90;;;;;;5043762;28;20017;-77
2023/01/05 11:50:45;;;;;;;0.30;0.30;;;11.00;99.90;;;;;;5042181;28;20045;-74
2023/01/05 11:53:38;;;;;;;0.55;0.55;;;10.90;99.90;;;;;;5056413;28;20412;-75
2023/01/05 11:56:19;;;;;;;0.65;0.65;;;10.60;99.90;;;;;;5042003;28;20092;-74
2023/01/05 11:58:46;;;;;;;0.47;0.47;;;10.40;99.90;;;;;;5042874;28;20028;-74
2023/01/05 12:01:33;;;;;;;0.10;0.10;;;10.40;99.90;;;;;;5044354;28;20056;-74
2023/01/05 12:04:30;;;;;;;0.30;0.30;;;10.50;99.90;;;;;;5043682;28;20025;-75
2023/01/05 12:07:13;;;;;;;0.80;0.55;;;10.60;99.90;;;;;;5042551;28;20069;-74
2023/01/05 12:09:46;;;;;;;0.47;0.47;;;10.50;99.90;;;;;;5053922;28;20511;-75
2023/01/05 12:12:24;;;;;;;0.50;0.50;;;10.40;99.90;;;;;;5058933;28;21186;-74
2023/01/05 12:15:44;;;;;;;0.68;0.68;;;10.60;99.90;;;;;;5041279;28;20025;-74
2023/01/05 12:18:40;;;;;;;0.15;0.15;;;10.70;99.90;;;;;;5027922;28;20037;-75
2023/01/05 12:21:17;;;;;;;0.35;0.35;;;10.80;99.90;;;;;;5043026;28;20499;-76
2023/01/05 12:23:48;;;;;;;0.40;0.40;;;10.90;99.90;;;;;;5043595;28;20021;-77
2023/01/05 12:26:28;;;;;;;0.30;0.30;;;11.00;99.90;;;;;;5043139;28;20762;-75
2023/01/05 12:29:11;;;;;;;1.90;0.35;;;11.20;99.90;;;;;;5042901;28;20021;-76
2023/01/05 12:32:08;;;;;;;0.50;0.32;;;11.30;99.90;;;;;;5042830;28;20095;-74
2023/01/05 12:34:33;;;;;;;;;;;11.40;99.90;;;;;;5043380;28;20027;-75
2023/01/05 12:37:14;;;;;;;0.27;0.27;;;11.60;99.90;;;;;;5039904;28;19908;-76
2023/01/05 12:40:07;;;;;;;0.00;0.00;;;11.70;99.90;;;;;;5041288;28;20064;-75
2023/01/05 12:42:56;;;;;;;0.40;0.40;;;11.70;99.90;;;;;;5042960;28;20029;-75
2023/01/05 12:45:31;;;;;;;0.52;0.40;;;11.50;99.90;;;;;;5037814;28;20131;-74
2023/01/05 12:48:15;;;;;;;0.55;0.55;;;11.40;99.90;;;;;;5042296;28;20695;-74
2023/01/05 12:50:48;;;;;;;0.10;0.10;;;11.40;99.90;;;;;;5042599;28;20043;-75
2023/01/05 12:53:33;;;;;;;0.77;0.15;;;11.30;99.90;;;;;;5042042;28;20454;-75
2023/01/05 12:56:07;;;;;;;0.25;0.15;;;11.30;99.90;;;;;;5038979;28;20067;-76
2023/01/05 12:58:41;;;;;;;0.10;0.10;;;11.20;99.90;;;;;;5042710;28;20021;-74
2023/01/05 13:01:17;;;;;;;0.22;0.22;;;11.30;99.90;;;;;;5042146;28;20117;-74
2023/01/05 13:04:10;;;;;;;1.40;1.08;;;11.50;99.90;;;;;;5042223;28;20190;-75
2023/01/05 13:06:40;;;;;;;0.15;0.15;;;11.70;99.90;;;;;;5040873;28;20032;-75
2023/01/05 13:09:17;;;;;;;0.75;0.70;;;11.80;99.90;;;;;;5041747;28;20133;-77
2023/01/05 13:11:52;;;;;;;0.30;0.30;;;11.80;99.90;;;;;;5040889;28;20037;-75
2023/01/05 13:14:29;;;;;;;0.30;0.30;;;11.80;99.90;;;;;;5042207;28;20086;-75
2023/01/05 13:17:02;;;;;;;0.20;0.20;;;11.90;99.90;;;;;;5042664;28;20025;-74
2023/01/05 13:19:44;;;;;;;0.63;0.60;;;11.80;99.90;;;;;;5041689;28;20727;-74
2023/01/05 13:22:20;;;;;;;7.00;0.90;;;11.80;99.90;;;;;;5041860;28;20021;-75
2023/01/05 13:24:56;;;;;;;0.30;0.30;;;11.90;99.90;;;;;;5039956;28;20028;-74
2023/01/05 13:27:22;;;;;;;0.30;0.30;;;11.90;99.90;;;;;;5041160;28;20260;-74
2023/01/05 13:29:53;;;;;;;0.57;0.40;;;12.00;99.90;;;;;;5041864;28;20032;-74
2023/01/05 13:32:27;;;;;;;0.38;0.38;;;12.10;99.90;;;;;;5042178;28;20025;-75
2023/01/05 13:35:30;;;;;;;0.17;0.17;;;12.20;99.90;;;;;;5036259;28;20032;-75
2023/01/05 13:38:17;;;;;;;0.22;0.22;;;12.20;99.90;;;;;;5036247;28;20036;-75
2023/01/05 13:40:51;;;;;;;0.13;0.13;;;12.10;99.90;;;;;;5041642;28;20025;-76
2023/01/05 13:43:26;;;;;;;0.32;0.32;;;12.10;99.90;;;;;;5052587;28;20059;-74
2023/01/05 13:46:12;;;;;;;0.52;0.52;;;12.00;99.90;;;;;;5053392;28;20120;-74
2023/01/05 13:49:03;;;;;;;0.10;0.10;;;11.80;99.90;;;;;;5036510;28;20029;-76
2023/01/05 13:51:47;;;;;;;0.10;0.10;;;11.70;99.90;;;;;;5053419;28;20052;-74
2023/01/05 13:54:50;;;;;;;0.13;0.13;;;11.60;99.90;;;;;;5041435;28;20516;-74